Time;durP1;ratioP1;P1;durP2;ratioP2;P2;SDS_P1;SDS_P2;PMS_P1;PMS_P2;Temp;Humidity;BMP_temperature;BMP_pressure;BME280_temperature;BME280_humidity;BME280_pressure;Samples;Min_cycle;Max_cycle;Signal;HPM_P1;HPM_P2
2022/10/03 00:01:41;;;;;;;6.97;1.20;;;;;;;19.20;60.44;99433.97;5094906;28;20043;-44
2022/10/03 00:04:10;;;;;;;5.70;1.42;;;;;;;19.26;60.48;99427.69;5094923;28;20016;-44
2022/10/03 00:07:16;;;;;;;4.85;1.10;;;;;;;19.53;59.62;99428.69;5093499;28;20401;-44
2022/10/03 00:09:55;;;;;;;6.18;1.42;;;;;;;19.56;59.04;99430.09;5076726;28;20028;-44
2022/10/03 00:13:04;;;;;;;4.25;1.30;;;;;;;19.60;58.29;99430.38;5076589;28;20036;-44
2022/10/03 00:15:43;;;;;;;3.00;1.27;;;;;;;19.11;58.15;99433.53;5094383;28;20054;-44
2022/10/03 00:18:40;;;;;;;3.55;1.25;;;;;;;18.34;59.08;99432.75;5094612;28;20028;-44
2022/10/03 00:21:17;;;;;;;4.70;1.80;;;;;;;17.52;61.82;99438.78;5093227;28;20051;-44
2022/10/03 00:24:03;;;;;;;6.45;1.42;;;;;;;17.00;63.77;99457.03;5093229;28;20596;-44
2022/10/03 00:26:56;;;;;;;4.13;1.95;;;;;;;16.65;64.97;99449.69;5094480;28;20030;-44
2022/10/03 00:29:37;;;;;;;3.40;1.83;;;;;;;16.51;65.97;99456.16;5052202;28;20032;-44
2022/10/03 00:32:13;;;;;;;5.72;1.45;;;;;;;16.42;66.56;99460.13;5094401;28;20104;-44
2022/10/03 00:34:38;;;;;;;10.23;3.15;;;;;;;16.64;67.12;99456.03;5092991;28;20035;-44
2022/10/03 00:37:10;;;;;;;5.55;1.42;;;;;;;16.97;66.34;99454.84;5091598;28;20476;-44
2022/10/03 00:39:44;;;;;;;4.70;1.52;;;;;;;17.06;65.98;99460.66;5092872;28;20097;-44
2022/10/03 00:42:45;;;;;;;3.42;1.60;;;;;;;17.23;65.38;99463.50;5092846;28;20039;-44
2022/10/03 00:46:00;;;;;;;13.20;10.13;;;;;;;17.31;65.11;99461.34;5094101;28;20020;-44
2022/10/03 00:48:45;;;;;;;3.88;2.15;;;;;;;17.50;64.24;99453.31;5082950;28;20036;-44
2022/10/03 00:51:56;;;;;;;5.43;1.05;;;;;;;17.50;64.07;99448.81;5094078;28;20055;-44
2022/10/03 00:54:42;;;;;;;11.52;1.48;;;;;;;17.54;64.97;99451.84;5064716;28;20044;-44
2022/10/03 00:57:24;;;;;;;5.47;1.50;;;;;;;17.89;63.92;99453.81;5093866;28;20032;-44
2022/10/03 01:00:25;;;;;;;5.07;1.42;;;;;;;18.03;63.14;99451.72;5092432;28;20036;-44
2022/10/03 01:02:51;;;;;;;7.97;2.75;;;;;;;17.89;62.76;99451.16;5093762;28;20446;-44
2022/10/03 01:05:35;;;;;;;6.78;1.15;;;;;;;17.66;63.31;99451.88;5092349;28;20028;-44
2022/10/03 01:08:38;;;;;;;2.90;1.13;;;;;;;17.52;64.36;99443.28;5093672;28;20498;-44
2022/10/03 01:11:29;;;;;;;10.35;2.33;;;;;;;17.81;64.72;99446.94;5093560;28;20058;-44
2022/10/03 01:14:09;;;;;;;6.25;2.00;;;;;;;18.20;64.24;99449.19;5093619;28;20032;-44
2022/10/03 01:17:08;;;;;;;3.90;1.13;;;;;;;18.63;63.20;99445.31;5093272;28;20050;-44
2022/10/03 01:19:47;;;;;;;10.48;2.08;;;;;;;18.95;62.21;99435.91;5093215;28;20046;-44
2022/10/03 01:22:50;;;;;;;8.38;1.95;;;;;;;19.10;61.51;99432.72;5093418;28;20024;-44
2022/10/03 01:25:28;;;;;;;8.52;1.50;;;;;;;19.24;61.10;99435.91;5091937;28;20028;-44
2022/10/03 01:31:22;;;;;;;9.98;1.38;;;;;;;19.68;60.25;99438.81;5093204;28;20069;-44
2022/10/03 01:34:07;;;;;;;10.13;1.63;;;;;;;19.96;59.55;99445.13;5092003;28;20056;-44
2022/10/03 01:36:53;;;;;;;10.45;1.92;;;;;;;20.04;58.66;99428.75;5093116;28;20032;-44
2022/10/03 01:39:31;;;;;;;9.15;2.00;;;;;;;19.62;59.42;99431.78;5092565;28;20035;-44
2022/10/03 01:42:16;;;;;;;8.82;1.95;;;;;;;19.85;59.51;99432.69;5093024;28;20085;-44
2022/10/03 01:45:03;;;;;;;8.60;2.78;;;;;;;19.94;59.15;99433.88;5093434;28;20039;-44
2022/10/03 01:47:50;;;;;;;15.27;8.25;;;;;;;20.01;58.95;99434.53;5091535;28;20028;-44
2022/10/03 01:50:25;;;;;;;23.77;21.10;;;;;;;20.14;58.51;99428.06;5092821;28;20118;-44
2022/10/03 01:53:26;;;;;;;12.48;6.50;;;;;;;20.21;57.93;99431.38;5092906;28;20566;-44
2022/10/03 01:56:19;;;;;;;10.55;3.33;;;;;;;20.32;57.98;99425.13;5079605;28;20116;-44
2022/10/03 01:59:06;;;;;;;18.10;7.43;;;;;;;20.31;58.32;99430.72;5091602;28;20024;-44
2022/10/03 02:01:45;;;;;;;14.10;4.93;;;;;;;20.30;58.26;99413.09;5092535;28;20107;-44
2022/10/03 02:04:22;;;;;;;6.05;2.38;;;;;;;20.37;57.98;99420.94;5092532;28;20031;-45
2022/10/03 02:07:02;;;;;;;24.88;18.95;;;;;;;20.13;58.85;99418.47;5092512;28;20028;-44
2022/10/03 02:09:49;;;;;;;10.27;4.80;;;;;;;20.18;58.98;99418.53;5092542;28;20032;-44
2022/10/03 02:12:24;;;;;;;7.20;1.85;;;;;;;20.22;58.60;99417.00;5091114;28;20452;-44
2022/10/03 02:15:04;;;;;;;8.05;2.10;;;;;;;20.16;58.59;99417.97;5092227;28;20414;-44
2022/10/03 02:18:07;;;;;;;13.68;3.10;;;;;;;20.12;59.08;99417.66;5092332;28;20606;-44
2022/10/03 02:21:16;;;;;;;13.05;4.22;;;;;;;20.00;58.87;99413.47;5077266;28;20398;-44
2022/10/03 02:23:44;;;;;;;24.73;5.90;;;;;;;19.85;59.03;99416.72;5080291;28;20115;-44
2022/10/03 02:26:35;;;;;;;7.95;1.67;;;;;;;19.65;59.44;99415.31;5090881;28;20119;-44
2022/10/03 02:29:12;;;;;;;4.75;1.00;;;;;;;19.43;60.07;99422.41;5092410;28;20035;-44
2022/10/03 02:32:04;;;;;;;3.60;1.08;;;;;;;19.16;60.42;99413.16;5090831;28;20031;-44
2022/10/03 02:35:06;;;;;;;2.90;1.40;;;;;;;18.76;61.50;99415.81;5092142;28;20020;-44
2022/10/03 02:38:09;;;;;;;6.70;1.10;;;;;;;18.43;62.58;99419.13;5092159;28;20397;-44
2022/10/03 02:40:55;;;;;;;3.33;1.30;;;;;;;18.30;63.46;99413.00;5092022;28;20031;-44
2022/10/03 02:43:46;;;;;;;4.35;1.50;;;;;;;18.33;63.82;99415.22;5092087;28;20494;-44
2022/10/03 02:46:36;;;;;;;8.05;1.40;;;;;;;18.44;63.67;99408.25;5092159;28;20032;-44
2022/10/03 02:50:02;;;;;;;6.13;1.40;;;;;;;18.56;63.26;99402.94;5091981;28;20081;-44
2022/10/03 02:52:40;;;;;;;5.80;1.63;;;;;;;18.72;62.98;99409.38;5091916;28;20024;-44
2022/10/03 02:55:23;;;;;;;5.65;1.20;;;;;;;18.82;63.42;99406.94;5091935;28;20051;-44
2022/10/03 02:58:00;;;;;;;7.80;1.73;;;;;;;18.91;63.06;99408.19;5091846;28;20024;-44
2022/10/03 03:01:01;;;;;;;10.38;1.80;;;;;;;18.86;63.36;99401.94;5092869;28;20024;-44
2022/10/03 03:03:54;;;;;;;7.78;1.30;;;;;;;18.74;63.56;99394.78;5094773;28;20089;-44
2022/10/03 03:06:37;;;;;;;9.82;2.08;;;;;;;18.69;63.99;99397.34;5094730;28;20024;-44
2022/10/03 03:09:50;;;;;;;7.95;1.63;;;;;;;18.53;64.69;99395.41;5095995;28;20085;-45
2022/10/03 03:12:41;;;;;;;8.13;1.60;;;;;;;18.41;64.80;99398.13;5050276;28;20039;-44
2022/10/03 03:15:44;;;;;;;6.45;1.20;;;;;;;18.30;64.87;99398.94;5095532;28;20043;-44
2022/10/03 03:18:38;;;;;;;7.45;1.60;;;;;;;18.16;65.13;99407.13;5095791;28;20032;-44
2022/10/03 03:21:19;;;;;;;9.52;2.13;;;;;;;18.16;65.46;99404.47;5095772;28;20038;-44
2022/10/03 03:23:48;;;;;;;7.80;2.42;;;;;;;18.30;66.96;99407.69;5095774;28;20073;-44
2022/10/03 03:26:29;;;;;;;7.85;2.03;;;;;;;18.39;66.74;99408.16;5095636;28;20024;-44
2022/10/03 03:29:09;;;;;;;4.90;1.65;;;;;;;18.35;66.46;99399.03;5095683;28;20024;-44
2022/10/03 03:31:49;;;;;;;4.95;1.85;;;;;;;18.56;66.38;99405.59;5095473;28;20024;-44
2022/10/03 03:34:36;;;;;;;6.47;1.45;;;;;;;18.72;65.42;99393.41;5094196;28;20032;-44
2022/10/03 03:37:13;;;;;;;9.93;1.70;;;;;;;18.71;65.11;99399.75;5095508;28;20101;-44
2022/10/03 03:40:14;;;;;;;5.78;1.70;;;;;;;18.50;65.78;99395.88;5095402;28;20028;-44
2022/10/03 03:43:21;;;;;;;13.85;1.70;;;;;;;18.53;65.67;99398.06;5079883;28;20033;-44
2022/10/03 03:46:31;;;;;;;10.68;1.63;;;;;;;18.51;65.47;99393.00;5060902;28;20503;-44
2022/10/03 03:49:15;;;;;;;10.30;2.33;;;;;;;18.54;65.19;99381.09;5095253;28;20508;-44
2022/10/03 03:51:48;;;;;;;7.72;1.65;;;;;;;18.50;65.40;99391.38;5095193;28;20020;-44
2022/10/03 03:54:44;;;;;;;7.47;1.33;;;;;;;18.43;65.40;99385.41;5093861;28;20040;-44
2022/10/03 03:57:24;;;;;;;10.07;1.40;;;;;;;18.27;65.25;99381.59;5076857;28;20032;-44
2022/10/03 03:59:52;;;;;;;7.03;1.33;;;;;;;18.08;65.73;99380.91;5094912;28;20505;-44
2022/10/03 04:02:41;;;;;;;5.15;1.42;;;;;;;17.94;66.22;99384.84;5093528;28;20082;-44
2022/10/03 04:05:22;;;;;;;13.93;2.53;;;;;;;17.82;66.95;99378.72;5093583;28;20036;-44
2022/10/03 04:08:00;;;;;;;4.20;1.48;;;;;;;17.74;67.12;99372.69;5078113;28;20497;-44
2022/10/03 04:10:56;;;;;;;6.28;1.70;;;;;;;17.69;67.44;99377.09;5093472;28;20039;-44
2022/10/03 04:13:35;;;;;;;;;;;;;;;17.74;67.42;99375.34;5095220;28;20020;-44
2022/10/03 04:19:31;;;;;;;16.08;10.45;;;;;;;17.84;67.96;99364.19;5094566;28;20159;-44
2022/10/03 04:22:29;;;;;;;14.10;4.22;;;;;;;17.98;67.88;99359.44;5093278;28;20084;-44
2022/10/03 04:25:16;;;;;;;14.88;2.50;;;;;;;18.19;67.98;99363.38;5092323;28;20044;-44
2022/10/03 04:28:17;;;;;;;10.38;2.22;;;;;;;18.41;67.20;99363.56;5094495;28;20032;-44
2022/10/03 04:31:18;;;;;;;7.28;1.60;;;;;;;18.43;66.65;99363.31;5094466;28;20048;-44
2022/10/03 04:33:47;;;;;;;9.52;1.90;;;;;;;18.32;66.67;99359.63;5086036;28;20461;-44
2022/10/03 04:36:21;;;;;;;13.75;2.35;;;;;;;18.33;66.82;99342.63;5094221;28;20028;-44
2022/10/03 04:39:03;;;;;;;10.40;2.03;;;;;;;18.55;66.57;99353.44;5092888;28;20039;-44
2022/10/03 04:42:00;;;;;;;11.05;2.55;;;;;;;18.70;65.96;99348.44;5094238;28;20020;-44
2022/10/03 04:44:48;;;;;;;3.95;1.27;;;;;;;18.81;65.59;99349.44;5094179;28;20028;-44
2022/10/03 04:47:51;;;;;;;6.65;1.23;;;;;;;18.92;65.11;99348.59;5094084;28;20502;-44
2022/10/03 04:50:39;;;;;;;6.82;1.40;;;;;;;18.94;64.88;99341.19;5092965;28;20020;-44
2022/10/03 04:53:27;;;;;;;10.40;1.75;;;;;;;18.94;65.04;99343.06;5092668;28;20115;-44
2022/10/03 04:56:11;;;;;;;11.00;1.77;;;;;;;19.03;64.91;99341.59;5093902;28;20165;-44
2022/10/03 04:59:22;;;;;;;4.18;1.42;;;;;;;18.98;65.02;99340.72;5093798;28;20031;-44
2022/10/03 05:02:08;;;;;;;8.23;1.73;;;;;;;18.95;64.91;99339.34;5093790;28;20032;-44
2022/10/03 05:04:57;;;;;;;8.90;1.85;;;;;;;18.84;65.14;99338.34;5092525;28;20077;-44
2022/10/03 05:07:45;;;;;;;7.88;1.67;;;;;;;18.87;65.38;99343.19;5093674;28;20085;-44
2022/10/03 05:10:29;;;;;;;6.28;1.50;;;;;;;19.04;65.12;99337.13;5093648;28;20095;-44
2022/10/03 05:13:40;;;;;;;27.45;16.60;;;;;;;19.19;65.02;99345.34;5093593;28;20024;-44
2022/10/03 05:16:27;;;;;;;18.23;2.50;;;;;;;19.44;64.76;99344.16;5093253;28;20048;-45
2022/10/03 05:18:53;;;;;;;4.63;1.40;;;;;;;19.67;63.54;99340.50;5093672;28;20028;-44
2022/10/03 05:21:19;;;;;;;13.13;1.92;;;;;;;19.71;63.15;99337.13;5092075;28;20024;-44
2022/10/03 05:24:01;;;;;;;13.40;2.15;;;;;;;19.76;63.03;99333.75;5092682;28;20106;-44
2022/10/03 05:26:52;;;;;;;15.80;2.42;;;;;;;19.76;62.62;99333.75;5093558;28;20092;-44
2022/10/03 05:29:46;;;;;;;14.93;2.70;;;;;;;19.59;62.92;99332.94;5091996;28;20039;-44
2022/10/03 05:32:40;;;;;;;10.45;2.20;;;;;;;19.48;63.40;99335.44;5091869;28;20031;-44
2022/10/03 05:35:21;;;;;;;11.77;2.72;;;;;;;19.52;63.42;99330.44;5063840;28;20042;-44
2022/10/03 05:38:15;;;;;;;7.70;2.40;;;;;;;19.46;63.21;99332.22;5093387;28;20082;-44
2022/10/03 05:41:03;;;;;;;13.30;3.22;;;;;;;19.42;63.62;99335.59;5091679;28;20035;-44
2022/10/03 05:43:57;;;;;;;18.60;2.85;;;;;;;19.43;63.85;99331.88;5091723;28;20042;-44
2022/10/03 05:47:00;;;;;;;15.00;2.70;;;;;;;19.32;63.77;99337.06;5092885;28;20036;-44
2022/10/03 05:49:34;;;;;;;16.33;1.95;;;;;;;19.26;63.95;99340.69;5092883;28;20032;-44
2022/10/03 05:52:20;;;;;;;9.60;1.77;;;;;;;19.29;63.93;99347.38;5091647;28;20494;-44
2022/10/03 05:55:02;;;;;;;8.38;1.95;;;;;;;19.33;63.78;99361.81;5092826;28;20036;-44
2022/10/03 05:57:51;;;;;;;6.45;2.20;;;;;;;19.39;63.55;99358.19;5092771;28;20052;-44
2022/10/03 06:00:22;;;;;;;11.63;2.55;;;;;;;19.39;63.75;99352.84;5092541;28;20028;-44
2022/10/03 06:03:13;;;;;;;25.58;4.40;;;;;;;19.51;64.18;99356.25;5091351;28;20444;-44
2022/10/03 06:06:00;;;;;;;19.73;3.78;;;;;;;19.73;63.69;99360.88;5092660;28;20024;-44
2022/10/03 06:08:49;;;;;;;14.98;3.15;;;;;;;19.91;63.18;99362.47;5092511;28;20024;-44
2022/10/03 06:11:54;;;;;;;22.70;3.72;;;;;;;20.09;63.17;99358.72;5091160;28;20028;-44
2022/10/03 06:14:43;;;;;;;20.45;3.45;;;;;;;20.18;62.61;99354.56;5091134;28;20031;-44
2022/10/03 06:17:54;;;;;;;14.90;1.83;;;;;;;20.02;62.36;99366.06;5092387;28;20505;-44
2022/10/03 06:20:54;;;;;;;12.23;2.30;;;;;;;19.97;62.17;99368.69;5092226;28;20012;-44
2022/10/03 06:23:53;;;;;;;6.00;1.80;;;;;;;19.79;62.48;99372.41;5092384;28;20035;-44
2022/10/03 06:27:21;;;;;;;8.73;1.73;;;;;;;19.68;62.92;99371.41;5092251;28;20020;-45
2022/10/03 06:30:02;;;;;;;10.07;2.00;;;;;;;19.79;62.98;99372.41;5013057;28;20410;-44
2022/10/03 06:32:46;;;;;;;14.93;2.53;;;;;;;19.98;63.23;99367.59;5029877;28;20033;-44
2022/10/03 06:35:36;;;;;;;14.77;2.30;;;;;;;20.30;62.65;99373.09;5029736;28;20104;-44
2022/10/03 06:38:35;;;;;;;11.43;2.20;;;;;;;20.61;60.83;99373.53;5029771;28;20049;-44
2022/10/03 06:41:38;;;;;;;12.18;1.80;;;;;;;20.79;60.94;99370.53;5029678;28;20043;-44
2022/10/03 06:44:06;;;;;;;6.25;1.63;;;;;;;21.13;60.01;99373.00;5029727;28;20045;-44
2022/10/03 06:46:58;;;;;;;13.00;2.30;;;;;;;21.36;58.83;99371.88;5029658;28;20083;-44
2022/10/03 06:49:42;;;;;;;5.93;1.60;;;;;;;21.56;58.34;99376.59;5029729;28;20107;-44
2022/10/03 06:52:17;;;;;;;8.32;1.70;;;;;;;21.52;57.56;99381.63;5029597;28;20045;-45
2022/10/03 06:54:48;;;;;;;12.15;2.05;;;;;;;21.35;57.97;99380.94;5029602;28;20052;-44
2022/10/03 06:57:51;;;;;;;8.45;1.33;;;;;;;21.25;57.93;99381.66;5029487;28;20256;-44
2022/10/03 07:00:19;;;;;;;6.32;1.50;;;;;;;21.28;58.19;99375.78;5012758;28;20030;-44
2022/10/03 07:03:03;;;;;;;10.02;2.05;;;;;;;21.35;58.55;99387.09;5016940;28;20029;-44
2022/10/03 07:05:49;;;;;;;4.72;1.52;;;;;;;21.40;57.90;99391.66;5091871;28;20031;-44
2022/10/03 07:08:35;;;;;;;6.68;1.80;;;;;;;21.39;57.81;99387.38;5090468;28;20032;-44
2022/10/03 07:11:07;;;;;;;7.55;1.70;;;;;;;21.34;57.94;99401.47;5090477;28;20458;-44
2022/10/03 07:14:11;;;;;;;7.63;1.70;;;;;;;21.30;57.90;99395.03;5091738;28;20133;-44
2022/10/03 07:16:59;;;;;;;9.10;1.98;;;;;;;21.09;58.56;99406.59;5091466;28;20492;-44
2022/10/03 07:19:39;;;;;;;7.50;1.40;;;;;;;21.04;58.72;99401.19;5090305;28;20111;-44
2022/10/03 07:22:39;;;;;;;10.55;2.13;;;;;;;21.05;58.99;99403.63;5091666;28;20020;-45
2022/10/03 07:25:46;;;;;;;8.40;2.70;;;;;;;21.14;58.68;99417.31;5091625;28;20035;-44
2022/10/03 07:28:42;;;;;;;5.07;1.20;;;;;;;21.19;58.16;99414.72;5091642;28;20038;-44
2022/10/03 07:31:08;;;;;;;6.28;2.10;;;;;;;21.10;58.52;99421.53;5091573;28;20482;-44
2022/10/03 07:34:12;;;;;;;6.47;1.55;;;;;;;21.09;58.45;99419.94;5090254;28;20024;-44
2022/10/03 07:40:07;;;;;;;18.73;2.30;;;;;;;21.22;58.30;99421.41;5091472;28;20096;-44
2022/10/03 07:42:38;;;;;;;37.07;2.67;;;;;;;21.37;57.51;99420.72;5090171;28;20024;-45
2022/10/03 07:45:29;;;;;;;21.85;1.73;;;;;;;21.33;57.51;99431.13;5091392;28;20518;-44
2022/10/03 07:48:22;;;;;;;11.95;1.67;;;;;;;21.30;57.66;99426.28;5094731;28;20064;-44
2022/10/03 07:51:07;;;;;;;12.77;1.95;;;;;;;21.24;57.48;99427.28;5095183;28;20024;-44
2022/10/03 07:53:51;;;;;;;8.38;1.42;;;;;;;21.12;57.87;99430.09;5095541;28;20035;-44
2022/10/03 07:56:47;;;;;;;8.77;1.38;;;;;;;21.15;57.97;99430.41;5093750;28;20028;-44
2022/10/03 07:59:30;;;;;;;;;;;;;;;21.15;58.11;99432.28;5095459;28;20508;-44
2022/10/03 08:02:14;;;;;;;4.20;0.90;;;;;;;21.11;58.21;99444.53;5094991;28;20003;-44
2022/10/03 08:05:01;;;;;;;9.70;1.67;;;;;;;21.10;58.63;99445.56;5095011;28;20107;-44
2022/10/03 08:07:57;;;;;;;9.95;1.70;;;;;;;21.07;58.38;99440.75;5094954;28;20032;-44
2022/10/03 08:10:50;;;;;;;6.93;1.50;;;;;;;20.99;58.54;99449.16;5094908;28;20107;-44
2022/10/03 08:13:47;;;;;;;10.80;1.42;;;;;;;20.90;58.57;99444.28;5094825;28;20039;-44
2022/10/03 08:16:13;;;;;;;5.80;1.25;;;;;;;20.83;58.65;99449.00;5093230;28;20055;-44
2022/10/03 08:19:11;;;;;;;7.28;1.35;;;;;;;20.84;58.52;99449.81;5094595;28;20020;-44
2022/10/03 08:22:02;;;;;;;10.27;1.55;;;;;;;20.82;58.80;99447.38;5094687;28;20028;-44
2022/10/03 08:25:05;;;;;;;8.70;1.40;;;;;;;20.84;58.74;99450.59;5094458;28;20085;-44
2022/10/03 08:27:42;;;;;;;4.90;1.50;;;;;;;20.87;58.65;99450.13;5094611;28;20037;-44
2022/10/03 08:30:16;;;;;;;4.35;1.15;;;;;;;20.94;58.55;99450.72;5094390;28;20078;-44
2022/10/03 08:32:49;;;;;;;7.30;1.30;;;;;;;21.03;58.42;99444.97;5094487;28;20113;-44
2022/10/03 08:35:51;;;;;;;4.80;1.30;;;;;;;21.27;57.78;99448.94;5094396;28;20752;-44
2022/10/03 08:38:32;;;;;;;2.35;0.75;;;;;;;21.47;56.69;99445.72;5094323;28;20370;-44
2022/10/03 08:41:16;;;;;;;7.50;1.13;;;;;;;21.49;56.78;99445.44;5094194;28;20405;-44
2022/10/03 08:43:49;;;;;;;4.03;1.27;;;;;;;21.64;56.24;99450.91;5094169;28;20032;-44
2022/10/03 08:46:53;;;;;;;7.68;1.30;;;;;;;21.61;55.81;99445.28;5094011;28;20040;-44
2022/10/03 08:49:56;;;;;;;6.22;1.52;;;;;;;21.41;56.30;99456.53;5094096;28;20016;-44
2022/10/03 08:52:29;;;;;;;5.63;0.90;;;;;;;21.25;56.55;99443.06;5094018;28;20035;-44
2022/10/03 08:55:10;;;;;;;6.63;1.10;;;;;;;21.19;56.49;99451.25;5093975;28;20460;-44
2022/10/03 08:58:05;;;;;;;8.52;1.60;;;;;;;21.13;57.04;99450.41;5093032;28;20066;-44
2022/10/03 09:00:36;;;;;;;8.50;1.13;;;;;;;21.13;56.69;99453.88;5092515;28;20035;-44
2022/10/03 09:03:20;;;;;;;5.63;1.05;;;;;;;21.14;56.63;99450.13;5093779;28;20084;-44
2022/10/03 09:06:19;;;;;;;2.25;0.70;;;;;;;21.12;56.12;99452.25;5093809;28;20020;-44
2022/10/03 09:09:15;;;;;;;4.72;0.95;;;;;;;21.04;56.90;99446.56;5093784;28;20111;-44
2022/10/03 09:12:18;;;;;;;5.25;0.98;;;;;;;21.20;56.02;99444.88;5092379;28;20047;-44
2022/10/03 09:15:14;;;;;;;6.07;0.80;;;;;;;21.30;55.60;99448.44;5092059;28;20020;-44
2022/10/03 09:18:13;;;;;;;8.07;1.15;;;;;;;21.31;55.75;99444.72;5093538;28;20024;-44
2022/10/03 09:21:05;;;;;;;4.50;0.80;;;;;;;21.27;55.68;99443.63;5093421;28;20028;-44
2022/10/03 09:23:54;;;;;;;10.18;1.02;;;;;;;21.25;56.17;99453.75;5093646;28;20421;-44
2022/10/03 09:26:29;;;;;;;4.20;0.82;;;;;;;21.26;55.53;99446.53;5093353;28;20055;-44
2022/10/03 09:29:25;;;;;;;7.68;1.02;;;;;;;21.24;55.70;99443.31;5093276;28;20039;-44
2022/10/03 09:32:23;;;;;;;9.02;0.85;;;;;;;21.46;55.57;99446.75;5091851;28;20593;-44
2022/10/03 09:35:30;;;;;;;2.53;0.77;;;;;;;21.90;54.43;99441.25;5080873;28;20398;-44
2022/10/03 09:38:02;;;;;;;3.42;0.82;;;;;;;22.17;53.26;99437.66;5084816;28;20407;-46
2022/10/03 09:41:21;;;;;;;4.05;0.65;;;;;;;22.45;52.92;99441.88;5092911;28;20115;-46
2022/10/03 09:43:53;;;;;;;6.20;1.27;;;;;;;22.62;52.09;99436.34;5030776;28;20037;-46
2022/10/03 09:46:37;;;;;;;2.50;0.80;;;;;;;22.66;52.04;99436.63;5030513;28;20045;-45
2022/10/03 09:49:30;;;;;;;13.48;1.33;;;;;;;22.70;52.04;99425.13;5030585;28;20131;-45
2022/10/03 09:52:21;;;;;;;4.88;0.82;;;;;;;22.62;52.01;99430.19;5030349;28;20088;-46
2022/10/03 09:55:00;;;;;;;5.18;0.95;;;;;;;22.32;52.81;99424.44;5030428;28;20021;-46
2022/10/03 09:58:04;;;;;;;4.47;1.08;;;;;;;22.32;53.13;99426.31;5030340;28;20088;-46
2022/10/03 10:01:13;;;;;;;7.68;1.20;;;;;;;22.41;52.47;99422.06;5013707;28;20156;-46
2022/10/03 10:04:12;;;;;;;3.08;0.90;;;;;;;22.74;51.95;99407.50;5030302;28;20033;-46
2022/10/03 10:06:56;;;;;;;3.20;0.70;;;;;;;23.00;50.86;99402.22;5030228;28;20068;-46
2022/10/03 10:09:55;;;;;;;5.22;1.10;;;;;;;23.03;51.22;99393.66;5013392;28;20029;-45
2022/10/03 10:12:47;;;;;;;4.07;0.88;;;;;;;23.32;50.48;99401.19;5030185;28;20044;-46
2022/10/03 10:15:39;;;;;;;4.85;1.13;;;;;;;23.29;50.04;99397.19;5013180;28;20608;-46
2022/10/03 10:18:30;;;;;;;5.53;0.90;;;;;;;23.40;49.59;99391.84;5070157;28;20055;-46
2022/10/03 10:21:01;;;;;;;3.85;0.80;;;;;;;23.29;48.98;99389.16;5092266;28;20035;-46
2022/10/03 10:23:42;;;;;;;6.38;1.02;;;;;;;23.35;49.40;99392.66;5092344;28;20028;-45
2022/10/03 10:26:55;;;;;;;2.65;0.82;;;;;;;23.35;49.07;99394.53;5092253;28;20086;-46
2022/10/03 10:29:55;;;;;;;3.05;0.93;;;;;;;23.25;49.89;99387.28;5086606;28;20040;-46
2022/10/03 10:32:48;;;;;;;4.55;1.05;;;;;;;23.28;50.05;99400.13;5092240;28;20439;-46
2022/10/03 10:35:36;;;;;;;4.53;1.02;;;;;;;23.18;50.13;99392.91;5092161;28;20107;-46
2022/10/03 10:38:39;;;;;;;7.13;1.30;;;;;;;23.05;50.19;99386.19;5090791;28;20383;-46
2022/10/03 10:41:46;;;;;;;1.65;1.10;;;;;;;22.75;50.30;99386.88;5088830;28;20051;-46
2022/10/03 10:44:41;;;;;;;4.30;0.90;;;;;;;22.61;50.90;99380.41;5092094;28;20024;-45
2022/10/03 10:47:22;;;;;;;3.53;1.27;;;;;;;22.45;51.30;99390.25;5092049;28;20105;-46
2022/10/03 10:50:25;;;;;;;3.97;1.20;;;;;;;22.44;51.07;99392.13;5091895;28;20115;-46
2022/10/03 10:53:28;;;;;;;3.00;1.38;;;;;;;22.37;51.23;99388.06;5090621;28;20035;-46
2022/10/03 10:56:13;;;;;;;5.15;1.20;;;;;;;22.41;51.39;99386.50;5090527;28;20031;-46
2022/10/03 10:59:00;;;;;;;2.80;0.80;;;;;;;22.48;51.54;99382.50;5073848;28;20567;-46
2022/10/03 11:01:44;;;;;;;1.95;0.85;;;;;;;22.67;51.02;99382.03;5091834;28;20445;-46
2022/10/03 11:04:28;;;;;;;6.38;0.88;;;;;;;22.67;50.41;99390.06;5092117;28;20024;-45
2022/10/03 11:06:57;;;;;;;1.85;0.80;;;;;;;22.63;50.63;99380.97;5090490;28;20031;-46
2022/10/03 11:09:59;;;;;;;4.80;1.48;;;;;;;22.71;50.97;99372.41;5091717;28;20039;-45
2022/10/03 11:12:49;;;;;;;6.20;1.10;;;;;;;22.79;50.41;99379.94;5090420;28;20046;-46
2022/10/03 11:15:52;;;;;;;12.35;1.23;;;;;;;22.72;50.81;99371.38;5090169;28;20084;-46
2022/10/03 11:18:54;;;;;;;2.72;1.08;;;;;;;22.81;50.76;99372.44;5091667;28;20024;-46
2022/10/03 11:21:50;;;;;;;2.78;0.90;;;;;;;22.93;50.32;99362.28;5091280;28;20173;-46
2022/10/03 11:24:59;;;;;;;5.47;1.15;;;;;;;22.98;49.56;99358.00;5095765;28;20028;-46
2022/10/03 11:28:03;;;;;;;3.10;1.10;;;;;;;22.89;49.48;99363.09;5095638;28;20039;-46
2022/10/03 11:30:54;;;;;;;7.68;2.00;;;;;;;22.70;50.25;99368.16;5095499;28;20035;-46
2022/10/03 11:33:41;;;;;;;6.07;1.50;;;;;;;22.81;50.47;99367.09;5094312;28;20109;-45
2022/10/03 11:36:44;;;;;;;3.90;1.88;;;;;;;22.96;49.88;99363.66;5095446;28;20030;-46
2022/10/03 11:39:40;;;;;;;4.65;1.05;;;;;;;23.10;49.48;99363.94;5095398;28;20112;-46
2022/10/03 11:42:18;;;;;;;3.58;1.10;;;;;;;23.26;48.92;99359.41;5095383;28;20024;-46
2022/10/03 11:45:06;;;;;;;10.52;1.63;;;;;;;23.13;49.11;99361.56;5095284;28;20016;-46
2022/10/03 11:47:56;;;;;;;4.75;1.27;;;;;;;23.12;49.05;99362.63;5093985;28;20043;-46
2022/10/03 11:50:28;;;;;;;3.55;1.23;;;;;;;23.10;49.03;99366.63;5093929;28;20021;-46
2022/10/03 11:52:57;;;;;;;6.18;1.10;;;;;;;23.06;49.11;99366.38;5095192;28;20024;-46
2022/10/03 11:56:06;;;;;;;6.18;1.45;;;;;;;23.02;49.18;99359.13;5095146;28;20062;-46
2022/10/03 11:58:51;;;;;;;4.55;1.10;;;;;;;23.09;48.74;99365.84;5095156;28;20106;-46
2022/10/03 12:01:23;;;;;;;;;;;;;;;23.17;48.68;99361.03;5095633;28;20378;-46
2022/10/03 12:04:07;;;;;;;4.03;1.00;;;;;;;23.20;48.68;99360.47;5093674;28;19912;-46
2022/10/03 12:10:09;;;;;;;5.65;1.65;;;;;;;23.57;47.13;99349.50;5095211;28;20066;-46
2022/10/03 12:12:49;;;;;;;11.93;1.70;;;;;;;23.25;48.18;99352.47;5094666;28;20070;-46
2022/10/03 12:15:29;;;;;;;4.95;1.30;;;;;;;23.10;48.81;99355.91;5094512;28;20091;-47
2022/10/03 12:18:08;;;;;;;2.42;0.93;;;;;;;23.04;48.83;99352.44;5093448;28;20114;-46
2022/10/03 12:21:02;;;;;;;12.05;1.70;;;;;;;23.17;48.97;99361.81;5094606;28;20032;-46
2022/10/03 12:23:51;;;;;;;3.47;1.20;;;;;;;23.37;48.37;99349.53;5094577;28;20061;-46
2022/10/03 12:26:43;;;;;;;4.93;1.30;;;;;;;23.40;48.01;99360.50;5094398;28;20460;-45
2022/10/03 12:29:15;;;;;;;2.55;1.00;;;;;;;23.46;47.64;99348.72;5093173;28;20031;-46
2022/10/03 12:32:16;;;;;;;4.68;1.23;;;;;;;23.55;47.50;99346.28;5093207;28;20028;-46
2022/10/03 12:34:49;;;;;;;5.43;1.40;;;;;;;23.83;47.38;99352.19;5094382;28;20032;-46
2022/10/03 12:37:36;;;;;;;6.28;1.30;;;;;;;24.07;46.39;99350.50;5093044;28;20035;-46
2022/10/03 12:40:16;;;;;;;3.97;1.40;;;;;;;24.00;46.51;99347.31;5094209;28;20024;-46
2022/10/03 12:42:52;;;;;;;4.10;1.02;;;;;;;23.93;46.27;99347.59;5094307;28;20111;-46
2022/10/03 12:45:29;;;;;;;3.53;1.10;;;;;;;23.86;46.31;99333.66;5094269;28;20028;-45
2022/10/03 12:48:00;;;;;;;13.82;1.23;;;;;;;23.81;46.53;99338.25;5092846;28;20043;-45
2022/10/03 12:50:55;;;;;;;4.78;1.00;;;;;;;23.62;46.75;99333.41;5092773;28;20026;-46
2022/10/03 12:53:37;;;;;;;9.70;1.55;;;;;;;23.48;47.14;99335.03;5094138;28;20024;-46
2022/10/03 12:56:20;;;;;;;6.53;0.93;;;;;;;23.48;47.10;99337.72;5092795;28;20035;-46
2022/10/03 12:59:07;;;;;;;3.03;0.88;;;;;;;23.31;47.17;99322.72;5093914;28;20544;-46
2022/10/03 13:01:52;;;;;;;5.40;1.15;;;;;;;23.09;47.51;99339.06;5092583;28;20030;-46
2022/10/03 13:04:41;;;;;;;6.20;1.00;;;;;;;23.03;47.44;99337.44;5093834;28;20028;-46
2022/10/03 13:07:23;;;;;;;9.27;1.48;;;;;;;23.03;48.19;99328.63;5093750;28;20105;-46
2022/10/03 13:09:52;;;;;;;8.02;1.20;;;;;;;23.43;47.67;99327.03;5093776;28;20035;-46
2022/10/03 13:12:39;;;;;;;3.60;0.80;;;;;;;23.87;46.25;99321.88;5093628;28;20495;-46
2022/10/03 13:15:43;;;;;;;5.38;1.00;;;;;;;24.15;45.68;99329.56;5093558;28;20515;-45
2022/10/03 13:18:35;;;;;;;2.90;1.33;;;;;;;24.30;45.29;99321.44;5093584;28;20039;-46
2022/10/03 13:21:26;;;;;;;1.17;0.60;;;;;;;24.59;44.45;99318.94;5091539;28;20032;-46
2022/10/03 13:24:15;;;;;;;4.60;0.85;;;;;;;25.04;43.53;99310.84;5093390;28;20028;-46